Terminal Aerodrome Forecast
Issued by NWS

Home | Current Version | Previous Version | Text Only | Print | Product List | Glossary On
Versions: 1 2 3 4 5 6 7 8 9 10 11 12 13 14 15 16 17 18 19 20 21 22 23 24 25
570
FTUS42 KCAE 161730
TAFCUB
TAF
KCUB 161730Z 1618/1718 VRB03KT P6SM FEW250
     FM170300 VRB03KT P6SM BKN100
     FM170900 VRB04KT P6SM VCSH BKN030
     FM171100 VRB04KT 5SM -RASN OVC025=

USA.gov is the U.S. government's official web portal to all federal, state and local government web resources and services.